sensor_id;sensor_type;location;lat;lon;timestamp;pressure;altitude;pressure_sealevel;temperature;humidity
43804;BME280;29430;52.924;-2.388;2022-12-18T00:00:40;99564.84;;;0.59;91.99
43804;BME280;29430;52.924;-2.388;2022-12-18T00:05:32;99578.50;;;0.56;91.37
43804;BME280;29430;52.924;-2.388;2022-12-18T00:10:24;99591.34;;;0.52;91.49
43804;BME280;29430;52.924;-2.388;2022-12-18T00:15:16;99586.63;;;0.46;90.74
43804;BME280;29430;52.924;-2.388;2022-12-18T00:20:08;99579.09;;;0.41;90.44
43804;BME280;29430;52.924;-2.388;2022-12-18T00:25:00;99584.22;;;0.34;90.52
43804;BME280;29430;52.924;-2.388;2022-12-18T00:29:52;99574.63;;;0.24;90.31
43804;BME280;29430;52.924;-2.388;2022-12-18T00:34:44;99568.38;;;0.15;90.36
43804;BME280;29430;52.924;-2.388;2022-12-18T00:39:35;99568.00;;;0.10;90.52
43804;BME280;29430;52.924;-2.388;2022-12-18T00:44:27;99569.44;;;0.04;90.79
43804;BME280;29430;52.924;-2.388;2022-12-18T00:49:19;99565.75;;;-0.03;90.50
43804;BME280;29430;52.924;-2.388;2022-12-18T00:54:11;99561.19;;;-0.11;90.69
43804;BME280;29430;52.924;-2.388;2022-12-18T00:59:03;99555.59;;;-0.17;90.64
43804;BME280;29430;52.924;-2.388;2022-12-18T01:03:56;99552.72;;;-0.24;90.30
43804;BME280;29430;52.924;-2.388;2022-12-18T01:08:48;99555.00;;;-0.29;90.07
43804;BME280;29430;52.924;-2.388;2022-12-18T01:13:40;99550.28;;;-0.35;89.87
43804;BME280;29430;52.924;-2.388;2022-12-18T01:18:32;99541.88;;;-0.41;90.12
43804;BME280;29430;52.924;-2.388;2022-12-18T01:23:24;99537.88;;;-0.45;90.09
43804;BME280;29430;52.924;-2.388;2022-12-18T01:28:16;99527.50;;;-0.48;90.40
43804;BME280;29430;52.924;-2.388;2022-12-18T01:33:08;99528.50;;;-0.49;91.00
43804;BME280;29430;52.924;-2.388;2022-12-18T01:37:59;99520.50;;;-0.49;91.15
43804;BME280;29430;52.924;-2.388;2022-12-18T01:42:52;99522.50;;;-0.51;91.07
43804;BME280;29430;52.924;-2.388;2022-12-18T01:47:54;99530.47;;;-0.51;91.20
43804;BME280;29430;52.924;-2.388;2022-12-18T01:52:48;99531.47;;;-0.52;90.84
43804;BME280;29430;52.924;-2.388;2022-12-18T01:57:41;99533.59;;;-0.56;90.64
43804;BME280;29430;52.924;-2.388;2022-12-18T02:02:33;99528.72;;;-0.60;91.05
43804;BME280;29430;52.924;-2.388;2022-12-18T02:12:53;99552.88;;;-0.72;91.61
43804;BME280;29430;52.924;-2.388;2022-12-18T02:17:53;99550.97;;;-0.79;91.81
43804;BME280;29430;52.924;-2.388;2022-12-18T02:28:13;99563.94;;;-0.94;92.54
43804;BME280;29430;52.924;-2.388;2022-12-18T02:33:07;99553.59;;;-0.97;93.31
43804;BME280;29430;52.924;-2.388;2022-12-18T02:38:03;99559.22;;;-1.00;93.81
43804;BME280;29430;52.924;-2.388;2022-12-18T02:42:55;99559.66;;;-1.05;93.50
43804;BME280;29430;52.924;-2.388;2022-12-18T02:47:53;99563.72;;;-1.11;94.16
43804;BME280;29430;52.924;-2.388;2022-12-18T02:57:48;99539.53;;;-1.17;94.53
43804;BME280;29430;52.924;-2.388;2022-12-18T03:07:55;99526.81;;;-1.23;94.83
43804;BME280;29430;52.924;-2.388;2022-12-18T03:12:52;99519.94;;;-1.26;95.27
43804;BME280;29430;52.924;-2.388;2022-12-18T03:17:52;99494.47;;;-1.29;95.05
43804;BME280;29430;52.924;-2.388;2022-12-18T03:22:50;99469.16;;;-1.33;95.49
43804;BME280;29430;52.924;-2.388;2022-12-18T03:27:47;99467.78;;;-1.37;95.58
43804;BME280;29430;52.924;-2.388;2022-12-18T03:37:39;99485.16;;;-1.42;95.96
43804;BME280;29430;52.924;-2.388;2022-12-18T03:42:46;99462.50;;;-1.47;96.30
43804;BME280;29430;52.924;-2.388;2022-12-18T03:47:55;99468.66;;;-1.46;96.40
43804;BME280;29430;52.924;-2.388;2022-12-18T03:58:01;99450.84;;;-1.46;97.33
43804;BME280;29430;52.924;-2.388;2022-12-18T04:02:56;99432.09;;;-1.44;97.87
43804;BME280;29430;52.924;-2.388;2022-12-18T04:07:50;99417.97;;;-1.45;97.55
43804;BME280;29430;52.924;-2.388;2022-12-18T04:12:43;99408.31;;;-1.46;97.90
43804;BME280;29430;52.924;-2.388;2022-12-18T04:17:35;99396.84;;;-1.46;98.17
43804;BME280;29430;52.924;-2.388;2022-12-18T04:22:27;99388.19;;;-1.48;98.39
43804;BME280;29430;52.924;-2.388;2022-12-18T04:27:19;99375.19;;;-1.51;98.14
43804;BME280;29430;52.924;-2.388;2022-12-18T04:32:10;99379.63;;;-1.52;98.51
43804;BME280;29430;52.924;-2.388;2022-12-18T04:37:02;99361.88;;;-1.51;99.66
43804;BME280;29430;52.924;-2.388;2022-12-18T04:41:54;99348.44;;;-1.50;100.00
43804;BME280;29430;52.924;-2.388;2022-12-18T04:46:46;99322.38;;;-1.46;100.00
43804;BME280;29430;52.924;-2.388;2022-12-18T04:51:38;99308.91;;;-1.45;100.00
43804;BME280;29430;52.924;-2.388;2022-12-18T04:56:31;99309.75;;;-1.44;100.00
43804;BME280;29430;52.924;-2.388;2022-12-18T05:01:23;99303.59;;;-1.45;100.00
43804;BME280;29430;52.924;-2.388;2022-12-18T05:06:25;99292.81;;;-1.43;100.00
43804;BME280;29430;52.924;-2.388;2022-12-18T05:11:17;99299.97;;;-1.43;100.00
43804;BME280;29430;52.924;-2.388;2022-12-18T05:16:09;99297.44;;;-1.45;100.00
43804;BME280;29430;52.924;-2.388;2022-12-18T05:21:02;99294.22;;;-1.49;100.00
43804;BME280;29430;52.924;-2.388;2022-12-18T05:25:56;99312.03;;;-1.49;100.00
43804;BME280;29430;52.924;-2.388;2022-12-18T05:30:52;99309.38;;;-1.49;100.00
43804;BME280;29430;52.924;-2.388;2022-12-18T05:35:44;99320.69;;;-1.47;100.00
43804;BME280;29430;52.924;-2.388;2022-12-18T05:40:36;99318.72;;;-1.45;100.00
43804;BME280;29430;52.924;-2.388;2022-12-18T05:45:28;99303.28;;;-1.41;100.00
43804;BME280;29430;52.924;-2.388;2022-12-18T05:50:19;99291.53;;;-1.39;100.00
43804;BME280;29430;52.924;-2.388;2022-12-18T05:55:11;99266.44;;;-1.36;100.00
43804;BME280;29430;52.924;-2.388;2022-12-18T06:00:03;99253.81;;;-1.34;100.00
43804;BME280;29430;52.924;-2.388;2022-12-18T06:04:55;99255.63;;;-1.35;100.00
43804;BME280;29430;52.924;-2.388;2022-12-18T06:09:47;99258.44;;;-1.36;100.00
43804;BME280;29430;52.924;-2.388;2022-12-18T06:14:38;99261.25;;;-1.38;100.00
43804;BME280;29430;52.924;-2.388;2022-12-18T06:19:30;99271.06;;;-1.38;100.00
43804;BME280;29430;52.924;-2.388;2022-12-18T06:24:21;99269.38;;;-1.39;100.00
43804;BME280;29430;52.924;-2.388;2022-12-18T06:29:13;99272.75;;;-1.37;100.00
43804;BME280;29430;52.924;-2.388;2022-12-18T06:34:05;99259.44;;;-1.37;100.00
43804;BME280;29430;52.924;-2.388;2022-12-18T06:38:57;99245.84;;;-1.34;100.00
43804;BME280;29430;52.924;-2.388;2022-12-18T06:43:49;99243.72;;;-1.31;100.00
43804;BME280;29430;52.924;-2.388;2022-12-18T06:48:41;99248.06;;;-1.30;100.00
43804;BME280;29430;52.924;-2.388;2022-12-18T06:53:32;99228.41;;;-1.29;100.00
43804;BME280;29430;52.924;-2.388;2022-12-18T06:58:24;99225.59;;;-1.27;100.00
43804;BME280;29430;52.924;-2.388;2022-12-18T07:03:16;99219.31;;;-1.26;100.00
43804;BME280;29430;52.924;-2.388;2022-12-18T07:08:08;99213.97;;;-1.26;100.00
43804;BME280;29430;52.924;-2.388;2022-12-18T07:13:00;99198.03;;;-1.26;100.00
43804;BME280;29430;52.924;-2.388;2022-12-18T07:17:52;99228.09;;;-1.26;100.00
43804;BME280;29430;52.924;-2.388;2022-12-18T07:22:43;99214.66;;;-1.24;100.00
43804;BME280;29430;52.924;-2.388;2022-12-18T07:27:35;99218.00;;;-1.22;100.00
43804;BME280;29430;52.924;-2.388;2022-12-18T07:32:27;99220.53;;;-1.20;100.00
43804;BME280;29430;52.924;-2.388;2022-12-18T07:37:18;99232.00;;;-1.20;100.00
43804;BME280;29430;52.924;-2.388;2022-12-18T07:42:10;99231.16;;;-1.20;100.00
43804;BME280;29430;52.924;-2.388;2022-12-18T07:47:21;99221.34;;;-1.20;100.00
43804;BME280;29430;52.924;-2.388;2022-12-18T07:52:12;99236.34;;;-1.19;100.00
43804;BME280;29430;52.924;-2.388;2022-12-18T07:57:04;99235.31;;;-1.18;100.00
43804;BME280;29430;52.924;-2.388;2022-12-18T08:02:15;99245.97;;;-1.18;100.00
43804;BME280;29430;52.924;-2.388;2022-12-18T08:07:07;99231.84;;;-1.18;100.00
43804;BME280;29430;52.924;-2.388;2022-12-18T08:11:59;99246.97;;;-1.19;100.00
43804;BME280;29430;52.924;-2.388;2022-12-18T08:16:51;99224.69;;;-1.18;100.00
43804;BME280;29430;52.924;-2.388;2022-12-18T08:21:43;99216.69;;;-1.18;100.00
43804;BME280;29430;52.924;-2.388;2022-12-18T08:26:34;99209.56;;;-1.17;100.00
43804;BME280;29430;52.924;-2.388;2022-12-18T08:31:28;99201.44;;;-1.16;100.00
43804;BME280;29430;52.924;-2.388;2022-12-18T08:36:20;99209.25;;;-1.14;100.00
43804;BME280;29430;52.924;-2.388;2022-12-18T08:41:15;99179.84;;;-1.13;100.00
43804;BME280;29430;52.924;-2.388;2022-12-18T08:46:07;99148.56;;;-1.11;100.00
43804;BME280;29430;52.924;-2.388;2022-12-18T08:50:59;99165.53;;;-1.12;100.00
43804;BME280;29430;52.924;-2.388;2022-12-18T08:55:51;99112.44;;;-1.13;100.00
43804;BME280;29430;52.924;-2.388;2022-12-18T09:00:43;99117.78;;;-1.13;100.00
43804;BME280;29430;52.924;-2.388;2022-12-18T09:05:35;99111.16;;;-1.09;100.00
43804;BME280;29430;52.924;-2.388;2022-12-18T09:10:26;99073.91;;;-1.09;100.00
43804;BME280;29430;52.924;-2.388;2022-12-18T09:15:18;99076.41;;;-1.08;100.00
43804;BME280;29430;52.924;-2.388;2022-12-18T09:20:11;99078.09;;;-1.06;100.00
43804;BME280;29430;52.924;-2.388;2022-12-18T09:25:03;99063.44;;;-1.02;100.00
43804;BME280;29430;52.924;-2.388;2022-12-18T09:29:55;99047.16;;;-0.99;100.00
43804;BME280;29430;52.924;-2.388;2022-12-18T09:34:47;99037.38;;;-0.99;100.00
43804;BME280;29430;52.924;-2.388;2022-12-18T09:39:38;99028.41;;;-0.89;100.00
43804;BME280;29430;52.924;-2.388;2022-12-18T09:44:44;99027.22;;;-0.87;100.00
43804;BME280;29430;52.924;-2.388;2022-12-18T09:49:44;99023.44;;;-0.84;100.00
43804;BME280;29430;52.924;-2.388;2022-12-18T09:54:38;99008.13;;;-0.82;100.00
43804;BME280;29430;52.924;-2.388;2022-12-18T09:59:37;99006.47;;;-0.75;100.00
43804;BME280;29430;52.924;-2.388;2022-12-18T10:04:31;98987.34;;;-0.70;100.00
43804;BME280;29430;52.924;-2.388;2022-12-18T10:09:33;98973.56;;;-0.66;100.00
43804;BME280;29430;52.924;-2.388;2022-12-18T10:14:57;98950.44;;;-0.57;100.00
43804;BME280;29430;52.924;-2.388;2022-12-18T10:20:04;98944.28;;;-0.49;100.00
43804;BME280;29430;52.924;-2.388;2022-12-18T10:25:03;98949.94;;;-0.44;100.00
43804;BME280;29430;52.924;-2.388;2022-12-18T10:29:57;98939.44;;;-0.38;100.00
43804;BME280;29430;52.924;-2.388;2022-12-18T10:34:53;98933.44;;;-0.31;100.00
43804;BME280;29430;52.924;-2.388;2022-12-18T10:45:05;98913.44;;;-0.19;100.00
43804;BME280;29430;52.924;-2.388;2022-12-18T10:49:59;98895.13;;;-0.14;100.00
43804;BME280;29430;52.924;-2.388;2022-12-18T10:54:59;98893.59;;;-0.08;100.00
43804;BME280;29430;52.924;-2.388;2022-12-18T10:59:57;98889.44;;;-0.03;100.00
43804;BME280;29430;52.924;-2.388;2022-12-18T11:04:51;98885.41;;;0.02;100.00
43804;BME280;29430;52.924;-2.388;2022-12-18T11:09:43;98876.72;;;0.08;100.00
43804;BME280;29430;52.924;-2.388;2022-12-18T11:14:54;98858.06;;;0.16;100.00
43804;BME280;29430;52.924;-2.388;2022-12-18T11:19:55;98846.72;;;0.22;100.00
43804;BME280;29430;52.924;-2.388;2022-12-18T11:24:54;98838.84;;;0.29;100.00
43804;BME280;29430;52.924;-2.388;2022-12-18T11:40:16;98821.09;;;0.44;100.00
43804;BME280;29430;52.924;-2.388;2022-12-18T11:50:14;98785.88;;;0.49;100.00
43804;BME280;29430;52.924;-2.388;2022-12-18T12:00:44;98766.22;;;0.50;100.00
43804;BME280;29430;52.924;-2.388;2022-12-18T12:06:01;98745.69;;;0.50;100.00
43804;BME280;29430;52.924;-2.388;2022-12-18T12:26:11;98696.44;;;0.61;100.00
43804;BME280;29430;52.924;-2.388;2022-12-18T12:35:58;98697.59;;;0.59;100.00
43804;BME280;29430;52.924;-2.388;2022-12-18T12:41:13;98671.94;;;0.58;100.00
43804;BME280;29430;52.924;-2.388;2022-12-18T12:46:25;98658.78;;;0.56;100.00
43804;BME280;29430;52.924;-2.388;2022-12-18T12:51:27;98634.78;;;0.56;100.00
43804;BME280;29430;52.924;-2.388;2022-12-18T12:56:21;98619.59;;;0.57;100.00
43804;BME280;29430;52.924;-2.388;2022-12-18T13:06:41;98602.09;;;0.54;100.00
43804;BME280;29430;52.924;-2.388;2022-12-18T13:16:51;98579.28;;;0.51;100.00
43804;BME280;29430;52.924;-2.388;2022-12-18T13:21:52;98559.78;;;0.51;100.00
43804;BME280;29430;52.924;-2.388;2022-12-18T13:26:45;98558.78;;;0.52;100.00
43804;BME280;29430;52.924;-2.388;2022-12-18T13:36:33;98560.44;;;0.53;100.00
43804;BME280;29430;52.924;-2.388;2022-12-18T13:41:27;98521.88;;;0.56;100.00
43804;BME280;29430;52.924;-2.388;2022-12-18T13:46:30;98506.72;;;0.56;100.00
43804;BME280;29430;52.924;-2.388;2022-12-18T13:51:33;98502.38;;;0.55;100.00
43804;BME280;29430;52.924;-2.388;2022-12-18T13:56:29;98486.19;;;0.57;100.00
43804;BME280;29430;52.924;-2.388;2022-12-18T14:01:22;98473.84;;;0.56;100.00
43804;BME280;29430;52.924;-2.388;2022-12-18T14:06:14;98460.69;;;0.54;100.00
43804;BME280;29430;52.924;-2.388;2022-12-18T14:11:19;98458.88;;;0.55;100.00
43804;BME280;29430;52.924;-2.388;2022-12-18T14:16:14;98436.31;;;0.57;100.00
43804;BME280;29430;52.924;-2.388;2022-12-18T14:21:17;98445.81;;;0.60;100.00
43804;BME280;29430;52.924;-2.388;2022-12-18T14:26:27;98419.75;;;0.62;100.00
43804;BME280;29430;52.924;-2.388;2022-12-18T14:31:23;98419.56;;;0.63;100.00
43804;BME280;29430;52.924;-2.388;2022-12-18T14:36:22;98410.38;;;0.66;100.00
43804;BME280;29430;52.924;-2.388;2022-12-18T14:41:16;98385.34;;;0.67;100.00
43804;BME280;29430;52.924;-2.388;2022-12-18T14:46:37;98397.47;;;0.69;100.00
43804;BME280;29430;52.924;-2.388;2022-12-18T14:51:31;98368.78;;;0.71;100.00
43804;BME280;29430;52.924;-2.388;2022-12-18T14:56:25;98394.06;;;0.76;100.00
43804;BME280;29430;52.924;-2.388;2022-12-18T15:01:23;98364.13;;;0.80;100.00
43804;BME280;29430;52.924;-2.388;2022-12-18T15:06:21;98347.56;;;0.85;100.00
43804;BME280;29430;52.924;-2.388;2022-12-18T15:11:26;98347.66;;;0.92;100.00
43804;BME280;29430;52.924;-2.388;2022-12-18T15:16:18;98333.53;;;0.98;100.00
43804;BME280;29430;52.924;-2.388;2022-12-18T15:21:11;98321.44;;;1.02;100.00
43804;BME280;29430;52.924;-2.388;2022-12-18T15:26:08;98338.56;;;1.07;100.00
43804;BME280;29430;52.924;-2.388;2022-12-18T15:36:09;98303.97;;;1.21;100.00
43804;BME280;29430;52.924;-2.388;2022-12-18T15:41:01;98323.34;;;1.30;100.00
43804;BME280;29430;52.924;-2.388;2022-12-18T15:45:53;98287.22;;;1.34;100.00
43804;BME280;29430;52.924;-2.388;2022-12-18T15:50:45;98296.94;;;1.41;100.00
43804;BME280;29430;52.924;-2.388;2022-12-18T15:55:37;98278.47;;;1.47;100.00
43804;BME280;29430;52.924;-2.388;2022-12-18T16:00:58;98268.66;;;1.54;100.00
43804;BME280;29430;52.924;-2.388;2022-12-18T16:05:50;98265.22;;;1.60;100.00
43804;BME280;29430;52.924;-2.388;2022-12-18T16:10:42;98252.06;;;1.65;100.00
43804;BME280;29430;52.924;-2.388;2022-12-18T16:15:33;98242.44;;;1.71;100.00
43804;BME280;29430;52.924;-2.388;2022-12-18T16:20:25;98233.66;;;1.77;100.00
43804;BME280;29430;52.924;-2.388;2022-12-18T16:25:18;98218.47;;;1.84;100.00
43804;BME280;29430;52.924;-2.388;2022-12-18T16:30:15;98230.19;;;1.90;100.00
43804;BME280;29430;52.924;-2.388;2022-12-18T16:35:13;98214.22;;;1.96;100.00
43804;BME280;29430;52.924;-2.388;2022-12-18T16:40:07;98224.09;;;2.03;100.00
43804;BME280;29430;52.924;-2.388;2022-12-18T16:45:00;98219.78;;;2.08;100.00
43804;BME280;29430;52.924;-2.388;2022-12-18T16:49:51;98200.25;;;2.14;100.00
43804;BME280;29430;52.924;-2.388;2022-12-18T16:54:43;98204.59;;;2.22;100.00
43804;BME280;29430;52.924;-2.388;2022-12-18T16:59:35;98203.81;;;2.28;100.00
43804;BME280;29430;52.924;-2.388;2022-12-18T17:04:27;98192.28;;;2.35;100.00
43804;BME280;29430;52.924;-2.388;2022-12-18T17:09:20;98184.50;;;2.40;100.00
43804;BME280;29430;52.924;-2.388;2022-12-18T17:14:18;98189.03;;;2.46;100.00
43804;BME280;29430;52.924;-2.388;2022-12-18T17:19:11;98161.47;;;2.52;100.00
43804;BME280;29430;52.924;-2.388;2022-12-18T17:24:08;98168.03;;;2.56;100.00
43804;BME280;29430;52.924;-2.388;2022-12-18T17:28:59;98163.72;;;2.62;100.00
43804;BME280;29430;52.924;-2.388;2022-12-18T17:33:51;98177.75;;;2.71;100.00
43804;BME280;29430;52.924;-2.388;2022-12-18T17:38:52;98155.31;;;2.78;100.00
43804;BME280;29430;52.924;-2.388;2022-12-18T17:43:50;98156.75;;;2.88;100.00
43804;BME280;29430;52.924;-2.388;2022-12-18T17:48:42;98143.34;;;2.94;100.00
43804;BME280;29430;52.924;-2.388;2022-12-18T17:53:33;98148.66;;;3.01;100.00
43804;BME280;29430;52.924;-2.388;2022-12-18T17:58:28;98126.00;;;3.10;100.00
43804;BME280;29430;52.924;-2.388;2022-12-18T18:03:20;98139.59;;;3.15;100.00
43804;BME280;29430;52.924;-2.388;2022-12-18T18:08:12;98120.63;;;3.23;100.00
43804;BME280;29430;52.924;-2.388;2022-12-18T18:13:05;98137.50;;;3.31;100.00
43804;BME280;29430;52.924;-2.388;2022-12-18T18:18:18;98118.91;;;3.43;100.00
43804;BME280;29430;52.924;-2.388;2022-12-18T18:23:12;98108.16;;;3.56;100.00
43804;BME280;29430;52.924;-2.388;2022-12-18T18:28:04;98092.44;;;3.66;100.00
43804;BME280;29430;52.924;-2.388;2022-12-18T18:32:55;98088.69;;;3.74;100.00
43804;BME280;29430;52.924;-2.388;2022-12-18T18:37:47;98079.31;;;3.90;100.00
43804;BME280;29430;52.924;-2.388;2022-12-18T18:42:41;98069.16;;;3.99;100.00
43804;BME280;29430;52.924;-2.388;2022-12-18T18:47:33;98068.09;;;4.06;100.00
43804;BME280;29430;52.924;-2.388;2022-12-18T18:52:24;98051.06;;;4.19;100.00
43804;BME280;29430;52.924;-2.388;2022-12-18T18:57:16;98042.91;;;4.33;100.00
43804;BME280;29430;52.924;-2.388;2022-12-18T19:02:12;98039.28;;;4.45;100.00
43804;BME280;29430;52.924;-2.388;2022-12-18T19:07:06;98033.38;;;4.62;100.00
43804;BME280;29430;52.924;-2.388;2022-12-18T19:11:58;98028.69;;;4.76;100.00
43804;BME280;29430;52.924;-2.388;2022-12-18T19:17:09;98024.44;;;4.87;100.00
43804;BME280;29430;52.924;-2.388;2022-12-18T19:22:00;97997.66;;;4.98;100.00
43804;BME280;29430;52.924;-2.388;2022-12-18T19:26:52;98003.47;;;5.14;100.00
43804;BME280;29430;52.924;-2.388;2022-12-18T19:31:48;97987.28;;;5.20;100.00
43804;BME280;29430;52.924;-2.388;2022-12-18T19:36:40;98000.63;;;5.27;100.00
43804;BME280;29430;52.924;-2.388;2022-12-18T19:41:32;97979.03;;;5.34;100.00
43804;BME280;29430;52.924;-2.388;2022-12-18T19:46:25;97990.53;;;5.41;100.00
43804;BME280;29430;52.924;-2.388;2022-12-18T19:51:23;97984.38;;;5.52;100.00
43804;BME280;29430;52.924;-2.388;2022-12-18T19:56:17;97980.88;;;5.64;100.00
43804;BME280;29430;52.924;-2.388;2022-12-18T20:01:11;97979.50;;;5.73;100.00
43804;BME280;29430;52.924;-2.388;2022-12-18T20:11:17;97972.66;;;5.89;100.00
43804;BME280;29430;52.924;-2.388;2022-12-18T20:16:08;97966.97;;;5.97;100.00
43804;BME280;29430;52.924;-2.388;2022-12-18T20:21:01;97975.16;;;6.02;100.00
43804;BME280;29430;52.924;-2.388;2022-12-18T20:25:54;97975.66;;;6.11;100.00
43804;BME280;29430;52.924;-2.388;2022-12-18T20:30:46;97945.34;;;6.16;100.00
43804;BME280;29430;52.924;-2.388;2022-12-18T20:35:38;97942.78;;;6.21;100.00
43804;BME280;29430;52.924;-2.388;2022-12-18T20:40:30;97917.13;;;6.30;100.00
43804;BME280;29430;52.924;-2.388;2022-12-18T20:45:22;97900.28;;;6.35;100.00
43804;BME280;29430;52.924;-2.388;2022-12-18T20:50:14;97940.09;;;6.44;100.00
43804;BME280;29430;52.924;-2.388;2022-12-18T20:55:06;97919.22;;;6.52;100.00
43804;BME280;29430;52.924;-2.388;2022-12-18T20:59:57;97915.59;;;6.58;100.00
43804;BME280;29430;52.924;-2.388;2022-12-18T21:04:49;97901.66;;;6.61;100.00
43804;BME280;29430;52.924;-2.388;2022-12-18T21:09:41;97912.56;;;6.66;100.00
43804;BME280;29430;52.924;-2.388;2022-12-18T21:14:32;97899.41;;;6.70;100.00
43804;BME280;29430;52.924;-2.388;2022-12-18T21:19:25;97896.81;;;6.75;100.00
43804;BME280;29430;52.924;-2.388;2022-12-18T21:24:18;97902.34;;;6.80;100.00
43804;BME280;29430;52.924;-2.388;2022-12-18T21:29:15;97901.03;;;6.82;100.00
43804;BME280;29430;52.924;-2.388;2022-12-18T21:34:13;97889.28;;;6.89;100.00
43804;BME280;29430;52.924;-2.388;2022-12-18T21:39:05;97874.84;;;6.95;100.00
43804;BME280;29430;52.924;-2.388;2022-12-18T21:43:56;97873.31;;;6.99;100.00
43804;BME280;29430;52.924;-2.388;2022-12-18T21:48:57;97855.47;;;7.10;100.00
43804;BME280;29430;52.924;-2.388;2022-12-18T21:53:49;97845.38;;;7.17;100.00
43804;BME280;29430;52.924;-2.388;2022-12-18T21:58:41;97843.56;;;7.23;100.00
43804;BME280;29430;52.924;-2.388;2022-12-18T22:03:47;97836.63;;;7.27;100.00
43804;BME280;29430;52.924;-2.388;2022-12-18T22:08:39;97833.78;;;7.33;100.00
43804;BME280;29430;52.924;-2.388;2022-12-18T22:13:34;97856.50;;;7.38;100.00
43804;BME280;29430;52.924;-2.388;2022-12-18T22:18:25;97863.63;;;7.44;100.00
43804;BME280;29430;52.924;-2.388;2022-12-18T22:23:17;97841.31;;;7.48;100.00
43804;BME280;29430;52.924;-2.388;2022-12-18T22:28:09;97826.84;;;7.55;100.00
43804;BME280;29430;52.924;-2.388;2022-12-18T22:33:19;97818.59;;;7.61;100.00
43804;BME280;29430;52.924;-2.388;2022-12-18T22:38:11;97823.84;;;7.68;100.00
43804;BME280;29430;52.924;-2.388;2022-12-18T22:43:03;97799.38;;;7.75;100.00
43804;BME280;29430;52.924;-2.388;2022-12-18T22:47:54;97788.66;;;7.80;100.00
43804;BME280;29430;52.924;-2.388;2022-12-18T22:52:46;97790.59;;;7.84;100.00
43804;BME280;29430;52.924;-2.388;2022-12-18T22:57:38;97797.16;;;7.88;100.00
43804;BME280;29430;52.924;-2.388;2022-12-18T23:02:36;97797.81;;;7.96;100.00
43804;BME280;29430;52.924;-2.388;2022-12-18T23:07:28;97796.22;;;8.00;100.00
43804;BME280;29430;52.924;-2.388;2022-12-18T23:12:19;97797.91;;;8.06;100.00
43804;BME280;29430;52.924;-2.388;2022-12-18T23:17:12;97787.22;;;8.11;100.00
43804;BME280;29430;52.924;-2.388;2022-12-18T23:22:03;97791.88;;;8.16;100.00
43804;BME280;29430;52.924;-2.388;2022-12-18T23:27:01;97786.28;;;8.22;100.00
43804;BME280;29430;52.924;-2.388;2022-12-18T23:31:56;97774.97;;;8.25;100.00
43804;BME280;29430;52.924;-2.388;2022-12-18T23:36:48;97770.13;;;8.28;100.00
43804;BME280;29430;52.924;-2.388;2022-12-18T23:41:46;97746.94;;;8.32;100.00
43804;BME280;29430;52.924;-2.388;2022-12-18T23:46:38;97746.75;;;8.38;100.00
43804;BME280;29430;52.924;-2.388;2022-12-18T23:51:30;97754.09;;;8.43;100.00
43804;BME280;29430;52.924;-2.388;2022-12-18T23:56:25;97747.16;;;8.47;100.00
